This is the latest recevied weather packets stored in our database for station/object G7GQA-4. If no packets are shown the sender has not sent any weather packets the latest 10 day(s).
| Time | Temp. | Humidity | Pressure | Rain* | Wind** | Luminosity | Snow |
|---|---|---|---|---|---|---|---|
| 1777515919 | 9.44° C | 69% | - | 0 mm | - | 0 W/m² | - |
| 1777515318 | 8.89° C | 69% | - | 0 mm | - | 0 W/m² | - |
| 1777514718 | 8.89° C | 70% | - | 0 mm | - | 0 W/m² | - |
| 1777514119 | 8.89° C | 70% | - | 0 mm | - | 0 W/m² | - |
| 1777513519 | 9.44° C | 69% | - | 0 mm | - | 0 W/m² | - |
| 1777512919 | 8.89° C | 70% | - | 0 mm | - | 0 W/m² | - |
| 1777512319 | 9.44° C | 69% | - | 0 mm | - | 0 W/m² | - |
| 1777511718 | 9.44° C | 68% | - | 0 mm | - | 0 W/m² | - |
| 1777511131 | 9.44° C | 68% | - | 0 mm | - | 0 W/m² | - |
| 1777510530 | 9.44° C | 68% | - | 0 mm | - | 0 W/m² | - |
| 1777509931 | 9.44° C | 68% | - | 0 mm | - | 0 W/m² | - |
| 1777509330 | 9.44° C | 68% | - | 0 mm | - | 0 W/m² | - |
| 1777508130 | 9.44° C | 67% | - | 0 mm | - | 0 W/m² | - |
| 1777507530 | 9.44° C | 67% | - | 0 mm | - | 0 W/m² | - |
| 1777506930 | 9.44° C | 66% | - | 0 mm | - | 0 W/m² | - |
| 1777505730 | 9.44° C | 65% | - | 0 mm | - | 0 W/m² | - |
| 1777499730 | 10.56° C | 58% | - | 0 mm | - | 0 W/m² | - |
| 1777496130 | 12.22° C | 51% | - | 0 mm | - | 0 W/m² | - |
| 1777493730 | 12.78° C | 47% | - | 0 mm | - | 0 W/m² | - |
| 1777493130 | 12.78° C | 46% | - | 0 mm | - | 0 W/m² | - |
| 1777488930 | 14.44° C | 38% | - | 0 mm | - | 23 W/m² | - |
| 1777485329 | 16.11° C | 30% | - | 0 mm | - | 54 W/m² | - |
| 1777484729 | 16.67° C | 29% | - | 0 mm | - | 60 W/m² | - |
| 1777483529 | 17.22° C | 30% | - | 0 mm | - | 72 W/m² | - |
| 1777482929 | 17.22° C | 29% | - | 0 mm | - | 94 W/m² | - |
* Rain latest hour (hover to see other rain measurements)
** Current wind speed in m/s (hover to see current wind gust speed)